Time;durP1;ratioP1;P1;durP2;ratioP2;P2;SDS_P1;SDS_P2;PMS_P1;PMS_P2;Temp;Humidity;BMP_temperature;BMP_pressure;BME280_temperature;BME280_humidity;BME280_pressure;Samples;Min_cycle;Max_cycle;Signal;HPM_P1;HPM_P2
2023/01/28 00:01:51;;;;;;;78.47;39.72;;;1.60;99.90;;;;;;5117953;28;20096;-65
2023/01/28 00:04:17;;;;;;;70.50;35.45;;;1.50;99.90;;;;;;5118011;28;20031;-65
2023/01/28 00:06:43;;;;;;;77.60;39.63;;;1.50;99.90;;;;;;5118019;28;20028;-65
2023/01/28 00:09:09;;;;;;;77.90;38.95;;;1.60;99.90;;;;;;5117885;28;20023;-65
2023/01/28 00:11:35;;;;;;;91.78;39.85;;;1.50;99.90;;;;;;5118027;28;20024;-65
2023/01/28 00:14:03;;;;;;;81.80;40.42;;;1.60;99.90;;;;;;5117989;28;20118;-65
2023/01/28 00:16:29;;;;;;;83.25;39.88;;;1.40;99.90;;;;;;5117765;28;20031;-65
2023/01/28 00:18:55;;;;;;;97.53;41.95;;;1.50;99.90;;;;;;5117769;28;20054;-65
2023/01/28 00:21:21;;;;;;;98.65;45.03;;;1.50;99.90;;;;;;5117792;28;20020;-65
2023/01/28 00:23:53;;;;;;;102.35;47.30;;;1.50;99.90;;;;;;5117632;28;20396;-65
2023/01/28 00:26:19;;;;;;;94.00;43.45;;;1.50;99.90;;;;;;5117677;28;20028;-65
2023/01/28 00:28:47;;;;;;;86.40;44.65;;;1.50;99.90;;;;;;5117628;28;20446;-65
2023/01/28 00:31:24;;;;;;;73.72;36.38;;;1.50;99.90;;;;;;5117594;28;20019;-65
2023/01/28 00:33:51;;;;;;;82.68;37.78;;;1.50;99.90;;;;;;5117557;28;20028;-65
2023/01/28 00:36:18;;;;;;;98.28;40.95;;;1.50;99.90;;;;;;5115902;28;20127;-65
2023/01/28 00:38:57;;;;;;;88.07;43.50;;;1.50;99.90;;;;;;5116195;28;20106;-65
2023/01/28 00:41:26;;;;;;;87.75;43.80;;;1.50;99.90;;;;;;5116035;28;20050;-65
2023/01/28 00:43:52;;;;;;;95.97;44.60;;;1.50;99.90;;;;;;5115977;28;20557;-65
2023/01/28 00:46:19;;;;;;;94.10;44.15;;;1.50;99.90;;;;;;5117201;28;20381;-65
2023/01/28 00:48:46;;;;;;;107.57;47.63;;;1.60;99.90;;;;;;5116998;28;20517;-65
2023/01/28 00:51:14;;;;;;;121.10;47.55;;;1.60;99.90;;;;;;5117256;28;20031;-65
2023/01/28 00:53:40;;;;;;;124.28;47.50;;;1.40;99.90;;;;;;5117137;28;20494;-65
2023/01/28 00:56:08;;;;;;;130.25;51.50;;;1.50;99.90;;;;;;5115570;28;20402;-65
2023/01/28 00:58:34;;;;;;;128.15;50.55;;;1.50;99.90;;;;;;5116858;28;20035;-65
2023/01/28 01:01:08;;;;;;;159.27;59.22;;;1.40;99.90;;;;;;5116452;28;20028;-65
2023/01/28 01:03:34;;;;;;;176.90;60.95;;;1.50;99.90;;;;;;5116725;28;20039;-65
2023/01/28 01:06:00;;;;;;;169.32;58.53;;;1.50;99.90;;;;;;5116974;28;20473;-65
2023/01/28 01:08:33;;;;;;;177.88;58.58;;;1.40;99.90;;;;;;5115487;28;20089;-65
2023/01/28 01:11:01;;;;;;;195.95;59.10;;;1.40;99.90;;;;;;5116613;28;20081;-65
2023/01/28 01:13:27;;;;;;;222.73;68.95;;;1.50;99.90;;;;;;5116646;28;20457;-65
2023/01/28 01:16:02;;;;;;;209.65;64.35;;;1.40;99.90;;;;;;5116508;28;20110;-65
2023/01/28 01:18:28;;;;;;;200.73;63.95;;;1.40;99.90;;;;;;5116517;28;20035;-65
2023/01/28 01:20:57;;;;;;;190.70;60.13;;;1.40;99.90;;;;;;5115299;28;20035;-65
2023/01/28 01:23:30;;;;;;;198.75;62.78;;;1.50;99.90;;;;;;5116605;28;20193;-65
2023/01/28 01:25:56;;;;;;;189.55;63.08;;;1.40;99.90;;;;;;5115052;28;20097;-65
2023/01/28 01:28:22;;;;;;;168.63;55.35;;;1.50;99.90;;;;;;5116310;28;20039;-65
2023/01/28 01:30:48;;;;;;;175.43;52.97;;;1.40;99.90;;;;;;5114961;28;20036;-65
2023/01/28 01:33:15;;;;;;;174.70;54.70;;;1.40;99.90;;;;;;5116251;28;20064;-65
2023/01/28 01:35:41;;;;;;;164.75;53.15;;;1.50;99.90;;;;;;5116215;28;20023;-65
2023/01/28 01:38:07;;;;;;;135.55;49.13;;;1.50;99.90;;;;;;5116010;28;20083;-65
2023/01/28 01:40:33;;;;;;;137.77;50.75;;;1.50;99.90;;;;;;5116100;28;20072;-65
2023/01/28 01:42:59;;;;;;;138.80;48.15;;;1.60;99.90;;;;;;5115940;28;20016;-65
2023/01/28 01:45:31;;;;;;;145.00;50.08;;;1.50;99.90;;;;;;5114753;28;20031;-65
2023/01/28 01:48:06;;;;;;;149.25;51.03;;;1.50;99.90;;;;;;5116079;28;20023;-65
2023/01/28 01:50:39;;;;;;;127.00;46.03;;;1.50;99.90;;;;;;5114592;28;20031;-65
2023/01/28 01:53:13;;;;;;;114.65;46.05;;;1.50;99.90;;;;;;5114574;28;20031;-65
2023/01/28 01:55:44;;;;;;;140.32;51.38;;;1.50;99.90;;;;;;5114337;28;20032;-65
2023/01/28 01:58:14;;;;;;;135.23;47.47;;;1.50;99.90;;;;;;5115833;28;20032;-65
2023/01/28 02:00:41;;;;;;;112.68;43.30;;;1.50;99.90;;;;;;5114431;28;20031;-65
2023/01/28 02:03:09;;;;;;;111.43;42.08;;;1.40;99.90;;;;;;5114372;28;20061;-65
2023/01/28 02:05:35;;;;;;;105.28;41.00;;;1.50;99.90;;;;;;5115790;28;20028;-65
2023/01/28 02:08:20;;;;;;;100.22;37.78;;;1.50;99.90;;;;;;5115554;28;20031;-65
2023/01/28 02:10:54;;;;;;;90.95;36.55;;;1.50;99.90;;;;;;5114137;28;20046;-65
2023/01/28 02:13:26;;;;;;;71.88;31.98;;;1.60;99.90;;;;;;5115041;28;20085;-65
2023/01/28 02:15:52;;;;;;;59.35;27.98;;;1.60;99.90;;;;;;5114278;28;20040;-65
2023/01/28 02:18:18;;;;;;;71.43;30.63;;;1.70;99.90;;;;;;5115264;28;20051;-65
2023/01/28 02:20:54;;;;;;;71.60;32.20;;;1.70;99.90;;;;;;5115624;28;20068;-65
2023/01/28 02:23:47;;;;;;;57.75;27.35;;;1.80;99.90;;;;;;5115421;28;20030;-65
2023/01/28 02:26:30;;;;;;;53.13;27.00;;;1.80;99.90;;;;;;5114096;28;20480;-65
2023/01/28 02:29:14;;;;;;;44.72;24.25;;;1.70;99.90;;;;;;5115203;28;20051;-65
2023/01/28 02:31:54;;;;;;;56.10;27.00;;;1.60;99.90;;;;;;5114045;28;20034;-65
2023/01/28 02:34:30;;;;;;;45.15;23.10;;;1.60;99.90;;;;;;5115230;28;20030;-65
2023/01/28 02:36:59;;;;;;;46.95;23.52;;;1.60;99.90;;;;;;5113859;28;20077;-65
2023/01/28 02:39:39;;;;;;;46.63;26.02;;;1.70;99.90;;;;;;5113969;28;20035;-65
2023/01/28 02:42:36;;;;;;;47.47;25.38;;;1.70;99.90;;;;;;5113887;28;20023;-65
2023/01/28 02:45:02;;;;;;;42.72;23.45;;;1.80;99.90;;;;;;5093426;28;20050;-65
2023/01/28 02:50:18;;;;;;;55.72;27.05;;;1.80;99.90;;;;;;5113841;28;20106;-65
2023/01/28 02:56:18;;;;;;;47.97;25.27;;;1.70;99.90;;;;;;5113781;28;20032;-65
2023/01/28 02:59:29;;;;;;;48.05;25.58;;;1.60;99.90;;;;;;5113713;28;20016;-65
2023/01/28 03:02:00;;;;;;;51.25;24.00;;;1.60;99.90;;;;;;5113463;28;20551;-65
2023/01/28 03:04:42;;;;;;;51.80;24.42;;;1.50;99.90;;;;;;5113645;28;20023;-65
2023/01/28 03:07:11;;;;;;;58.78;25.60;;;1.60;99.90;;;;;;5113609;28;20396;-65
2023/01/28 03:09:39;;;;;;;54.28;23.60;;;1.50;99.90;;;;;;5114829;28;20035;-65
2023/01/28 03:38:41;;;;;;;67.95;29.67;;;1.60;99.90;;;;;;5117171;28;20473;-65
2023/01/28 03:41:10;;;;;;;55.90;28.00;;;1.50;99.90;;;;;;5117232;28;20076;-65
2023/01/28 03:43:38;;;;;;;57.72;28.35;;;1.50;99.90;;;;;;5117182;28;20031;-65
2023/01/28 03:46:05;;;;;;;51.55;25.88;;;1.50;99.90;;;;;;5116991;28;20031;-65
2023/01/28 03:48:31;;;;;;;51.10;26.60;;;1.50;99.90;;;;;;5117123;28;20023;-65
2023/01/28 03:51:00;;;;;;;46.60;25.88;;;1.50;99.90;;;;;;5116988;28;20473;-65
2023/01/28 03:53:28;;;;;;;48.22;25.45;;;1.50;99.90;;;;;;5116874;28;20072;-65
2023/01/28 03:55:56;;;;;;;50.90;25.05;;;1.40;99.90;;;;;;5116759;28;20057;-65
2023/01/28 03:58:45;;;;;;;56.20;26.40;;;1.50;99.90;;;;;;5116755;28;20027;-65
2023/01/28 04:01:09;;;;;;;54.90;25.77;;;1.60;99.90;;;;;;5116211;28;20039;-65
2023/01/28 04:03:35;;;;;;;58.03;27.02;;;1.60;99.90;;;;;;5116719;28;20050;-65
2023/01/28 04:06:07;;;;;;;;;;;1.60;99.90;;;;;;5117066;28;20554;-65
2023/01/28 04:08:58;;;;;;;57.40;25.33;;;1.50;99.90;;;;;;5109483;28;19907;-65
2023/01/28 04:11:42;;;;;;;51.47;26.77;;;1.40;99.90;;;;;;5118035;28;20287;-65
2023/01/28 04:14:12;;;;;;;46.08;25.65;;;1.50;99.90;;;;;;5116540;28;20030;-65
2023/01/28 04:16:58;;;;;;;52.92;27.58;;;1.50;99.90;;;;;;5110064;28;20477;-65
2023/01/28 04:19:25;;;;;;;50.42;26.75;;;1.50;99.90;;;;;;5116438;28;20035;-65
2023/01/28 04:21:53;;;;;;;46.50;25.27;;;1.50;99.90;;;;;;5116477;28;20031;-65
2023/01/28 04:24:20;;;;;;;50.78;26.67;;;1.60;99.90;;;;;;5116393;28;20035;-65
2023/01/28 04:26:46;;;;;;;55.17;27.30;;;1.60;99.90;;;;;;5116252;28;20043;-65
2023/01/28 04:29:14;;;;;;;48.92;25.67;;;1.50;99.90;;;;;;5116314;28;20032;-65
2023/01/28 04:31:40;;;;;;;50.33;26.75;;;1.50;99.90;;;;;;5117531;28;20027;-65
2023/01/28 04:34:41;;;;;;;52.33;27.67;;;1.50;99.90;;;;;;5104506;28;20043;-65
2023/01/28 04:37:24;;;;;;;56.42;28.05;;;1.60;99.90;;;;;;5101528;28;20035;-65
2023/01/28 04:40:13;;;;;;;56.00;28.38;;;1.60;99.90;;;;;;5116991;28;20036;-65
2023/01/28 04:42:41;;;;;;;56.55;27.90;;;1.60;99.90;;;;;;5115999;28;20057;-65
2023/01/28 04:45:22;;;;;;;58.25;29.70;;;1.70;99.90;;;;;;5115975;28;20095;-65
2023/01/28 04:48:11;;;;;;;59.55;29.73;;;1.70;99.90;;;;;;5111388;28;20035;-65
2023/01/28 04:50:49;;;;;;;63.60;30.30;;;1.60;99.90;;;;;;5115818;28;20039;-65
2023/01/28 04:53:38;;;;;;;57.92;31.63;;;1.60;99.90;;;;;;5116982;28;20380;-65
2023/01/28 04:56:07;;;;;;;59.58;30.65;;;1.70;99.90;;;;;;5117048;28;20058;-65
2023/01/28 04:58:34;;;;;;;55.88;30.55;;;1.60;99.90;;;;;;5115783;28;20031;-65
2023/01/28 05:01:04;;;;;;;54.60;29.75;;;1.60;99.90;;;;;;5115438;28;20532;-65
2023/01/28 05:03:31;;;;;;;58.28;31.38;;;1.60;99.90;;;;;;5115614;28;20044;-65
2023/01/28 05:05:57;;;;;;;60.00;32.08;;;1.60;99.90;;;;;;5115583;28;20030;-65
2023/01/28 05:08:34;;;;;;;60.00;32.03;;;1.60;99.90;;;;;;5115524;28;20135;-65
2023/01/28 05:11:00;;;;;;;59.72;32.05;;;1.60;99.90;;;;;;5116773;28;20020;-65
2023/01/28 05:13:26;;;;;;;55.80;31.30;;;1.50;99.90;;;;;;5115392;28;20027;-65
2023/01/28 05:15:53;;;;;;;62.35;33.40;;;1.40;99.90;;;;;;5115432;28;20035;-65
2023/01/28 05:18:19;;;;;;;59.08;32.58;;;1.40;99.90;;;;;;5115260;28;20033;-65
2023/01/28 05:20:55;;;;;;;55.95;30.65;;;1.40;99.90;;;;;;5115277;28;20057;-65
2023/01/28 05:23:21;;;;;;;60.28;31.58;;;1.50;99.90;;;;;;5115096;28;20024;-65
2023/01/28 05:25:53;;;;;;;56.03;31.02;;;1.60;99.90;;;;;;5115115;28;20028;-65
2023/01/28 05:28:19;;;;;;;55.47;31.88;;;1.60;99.90;;;;;;5115007;28;20509;-65
2023/01/28 05:30:46;;;;;;;58.20;31.35;;;1.70;99.90;;;;;;5114993;28;20099;-65
2023/01/28 05:33:12;;;;;;;58.92;29.35;;;1.70;99.90;;;;;;5115043;28;20023;-65
2023/01/28 05:35:38;;;;;;;62.00;31.98;;;1.80;99.90;;;;;;5114818;28;20027;-65
2023/01/28 05:38:04;;;;;;;60.50;32.28;;;1.90;99.90;;;;;;5114757;28;20040;-65
2023/01/28 05:40:31;;;;;;;64.60;32.33;;;1.90;99.90;;;;;;5114827;28;20030;-65
2023/01/28 05:42:57;;;;;;;68.75;32.70;;;1.80;99.90;;;;;;5114795;28;20027;-65
2023/01/28 05:45:35;;;;;;;65.38;32.78;;;1.70;99.90;;;;;;5114977;28;20035;-65
2023/01/28 05:48:24;;;;;;;55.63;30.73;;;1.60;99.90;;;;;;5086192;28;20031;-65
2023/01/28 05:51:09;;;;;;;61.55;32.10;;;1.60;99.90;;;;;;5116052;28;20039;-65
2023/01/28 05:53:37;;;;;;;62.55;32.42;;;1.60;99.90;;;;;;5114699;28;20032;-65
2023/01/28 05:56:04;;;;;;;62.92;32.97;;;1.50;99.90;;;;;;5114528;28;20096;-65
2023/01/28 05:58:32;;;;;;;65.28;35.60;;;1.50;99.90;;;;;;5114579;28;20024;-65
2023/01/28 06:01:01;;;;;;;69.53;35.55;;;1.50;99.90;;;;;;5114436;28;20036;-65
2023/01/28 06:03:35;;;;;;;67.63;34.63;;;1.60;99.90;;;;;;5114441;28;20032;-65
2023/01/28 06:06:01;;;;;;;74.25;37.53;;;1.70;99.90;;;;;;5114224;28;20400;-65
2023/01/28 06:08:28;;;;;;;72.50;38.03;;;1.70;99.90;;;;;;5114372;28;20027;-65
2023/01/28 06:10:54;;;;;;;78.78;38.85;;;1.60;99.90;;;;;;5114465;28;20032;-65
2023/01/28 06:13:23;;;;;;;69.80;35.80;;;1.60;99.90;;;;;;5114327;28;20024;-65
2023/01/28 06:16:12;;;;;;;74.57;36.65;;;1.60;99.90;;;;;;5107092;28;20385;-65
2023/01/28 06:18:46;;;;;;;67.32;35.42;;;1.60;99.90;;;;;;5115424;28;20039;-65
2023/01/28 06:21:12;;;;;;;78.13;38.10;;;1.70;99.90;;;;;;5115421;28;20360;-65
2023/01/28 06:23:38;;;;;;;70.22;37.10;;;1.80;99.90;;;;;;5113989;28;20030;-65
2023/01/28 06:26:07;;;;;;;71.95;35.25;;;1.70;99.90;;;;;;5113932;28;20058;-65
2023/01/28 06:28:34;;;;;;;64.07;36.08;;;1.70;99.90;;;;;;5113950;28;20028;-65
2023/01/28 06:31:00;;;;;;;63.97;34.22;;;1.70;99.90;;;;;;5115349;28;20453;-65
2023/01/28 06:33:27;;;;;;;68.88;37.00;;;1.70;99.90;;;;;;5115228;28;20031;-65
2023/01/28 06:35:53;;;;;;;74.22;37.78;;;1.70;99.90;;;;;;5115137;28;20019;-65
2023/01/28 06:38:19;;;;;;;78.50;41.95;;;1.60;99.90;;;;;;5115160;28;20484;-65
2023/01/28 06:40:51;;;;;;;82.93;44.08;;;1.60;99.90;;;;;;5115054;28;20031;-65
2023/01/28 06:43:17;;;;;;;80.28;42.97;;;1.50;99.90;;;;;;5115048;28;20027;-65
2023/01/28 06:45:43;;;;;;;93.95;45.95;;;1.50;99.90;;;;;;5115056;28;20035;-65
2023/01/28 06:48:09;;;;;;;89.03;42.40;;;1.60;99.90;;;;;;5115203;28;20023;-65
2023/01/28 06:50:35;;;;;;;84.97;42.53;;;1.60;99.90;;;;;;5115113;28;20023;-65
2023/01/28 06:53:01;;;;;;;91.28;44.90;;;1.60;99.90;;;;;;5115033;28;20538;-65
2023/01/28 06:55:27;;;;;;;91.95;44.65;;;1.70;99.90;;;;;;5114877;28;20023;-65
2023/01/28 06:57:53;;;;;;;90.38;47.83;;;1.60;99.90;;;;;;5116298;28;20023;-65
2023/01/28 07:00:19;;;;;;;92.43;45.75;;;1.60;99.90;;;;;;5121673;28;20058;-65
2023/01/28 07:02:45;;;;;;;99.43;47.17;;;1.50;99.90;;;;;;5121628;27;20127;-65
2023/01/28 07:05:11;;;;;;;94.65;47.03;;;1.70;99.90;;;;;;5121839;28;20058;-65
2023/01/28 07:07:37;;;;;;;91.45;44.65;;;1.60;99.90;;;;;;5121753;28;20491;-65
2023/01/28 07:10:03;;;;;;;78.22;41.70;;;1.70;99.90;;;;;;5121536;28;20032;-65
2023/01/28 07:12:29;;;;;;;85.78;43.05;;;1.60;99.90;;;;;;5121615;27;20028;-65
2023/01/28 07:14:55;;;;;;;95.88;43.97;;;1.70;99.90;;;;;;5121637;28;20026;-65
2023/01/28 07:17:21;;;;;;;76.82;38.80;;;1.60;99.90;;;;;;5121319;27;20500;-65
2023/01/28 07:19:47;;;;;;;79.18;41.85;;;1.70;99.90;;;;;;5121606;28;20107;-65
2023/01/28 07:22:13;;;;;;;84.00;39.88;;;1.70;99.90;;;;;;5121576;28;20385;-65
2023/01/28 07:24:38;;;;;;;79.93;40.08;;;1.70;99.90;;;;;;5121484;27;20055;-65
2023/01/28 07:27:04;;;;;;;92.80;44.75;;;1.70;99.90;;;;;;5121791;28;20040;-65
2023/01/28 07:29:30;;;;;;;92.40;44.45;;;1.70;99.90;;;;;;5121536;27;20031;-65
2023/01/28 07:31:56;;;;;;;82.72;42.35;;;1.70;99.90;;;;;;5121469;28;20500;-65
2023/01/28 07:34:22;;;;;;;84.97;42.30;;;1.70;99.90;;;;;;5121466;28;20054;-65
2023/01/28 07:36:48;;;;;;;81.10;41.30;;;1.70;99.90;;;;;;5121355;28;20028;-65
2023/01/28 07:39:14;;;;;;;90.72;42.65;;;1.90;99.90;;;;;;5121358;28;20560;-65
2023/01/28 07:41:40;;;;;;;91.82;43.70;;;1.80;99.90;;;;;;5121421;27;20024;-65
2023/01/28 07:44:24;;;;;;;85.53;43.53;;;1.80;99.90;;;;;;5120080;28;20439;-65
2023/01/28 07:46:50;;;;;;;88.18;42.90;;;1.80;99.90;;;;;;5121390;27;20036;-65
2023/01/28 07:49:16;;;;;;;85.30;41.30;;;1.70;99.90;;;;;;5121430;28;20384;-65
2023/01/28 07:51:44;;;;;;;82.25;42.15;;;1.70;99.90;;;;;;5121160;27;20114;-65
2023/01/28 07:54:10;;;;;;;83.93;43.58;;;1.70;99.90;;;;;;5121264;27;20480;-66
2023/01/28 07:56:36;;;;;;;86.05;43.08;;;1.80;99.90;;;;;;5121209;27;20023;-66
2023/01/28 07:59:02;;;;;;;93.47;45.10;;;1.80;99.90;;;;;;5121200;28;20039;-66
2023/01/28 08:01:27;;;;;;;101.18;50.20;;;1.60;99.90;;;;;;5121067;28;20051;-66
2023/01/28 08:03:53;;;;;;;87.68;42.78;;;1.70;99.90;;;;;;5121259;28;20024;-66
2023/01/28 08:06:19;;;;;;;86.80;40.72;;;1.80;99.90;;;;;;5120974;28;20038;-66
2023/01/28 08:08:47;;;;;;;78.75;40.28;;;1.80;99.90;;;;;;5121068;28;20038;-66
2023/01/28 08:11:13;;;;;;;88.05;42.20;;;1.70;99.90;;;;;;5117264;27;20028;-66
2023/01/28 08:13:39;;;;;;;87.22;43.08;;;1.80;99.90;;;;;;5118063;28;20157;-66
2023/01/28 08:16:05;;;;;;;84.03;40.40;;;1.90;99.90;;;;;;5118045;28;20059;-66
2023/01/28 08:18:31;;;;;;;80.28;40.67;;;2.00;99.90;;;;;;5117803;28;20113;-66
2023/01/28 08:20:58;;;;;;;82.97;39.88;;;1.90;99.90;;;;;;5117649;28;20019;-66
2023/01/28 08:23:26;;;;;;;94.28;44.83;;;2.00;99.90;;;;;;5117716;28;20520;-66
2023/01/28 08:25:52;;;;;;;80.28;40.97;;;1.90;99.90;;;;;;5117683;28;20492;-66
2023/01/28 08:28:19;;;;;;;88.75;43.65;;;1.90;99.90;;;;;;5117603;28;20030;-66
2023/01/28 08:30:45;;;;;;;103.32;47.10;;;1.80;99.90;;;;;;5117681;28;20073;-66
2023/01/28 08:33:13;;;;;;;95.03;45.08;;;1.80;99.90;;;;;;5117611;28;20073;-66
2023/01/28 08:35:40;;;;;;;86.15;42.38;;;1.90;99.90;;;;;;5117250;28;20031;-66
2023/01/28 08:38:07;;;;;;;91.47;42.70;;;2.00;99.90;;;;;;5117405;28;20063;-66
2023/01/28 08:40:34;;;;;;;90.15;41.78;;;2.00;99.90;;;;;;5117385;28;20458;-66
2023/01/28 08:43:00;;;;;;;92.38;43.72;;;2.10;99.90;;;;;;5117253;28;20035;-66
2023/01/28 08:45:27;;;;;;;98.60;45.72;;;2.10;99.90;;;;;;5117330;28;20023;-66
2023/01/28 08:48:01;;;;;;;113.80;47.95;;;2.10;99.90;;;;;;5117409;28;20414;-66
2023/01/28 08:50:31;;;;;;;101.15;47.00;;;2.00;99.90;;;;;;5117092;28;20027;-66
2023/01/28 08:53:02;;;;;;;123.38;54.67;;;1.90;99.90;;;;;;5117158;28;20512;-67
2023/01/28 08:55:30;;;;;;;133.05;56.08;;;1.90;99.90;;;;;;5115691;28;20035;-66
2023/01/28 08:57:56;;;;;;;120.50;53.55;;;2.00;99.90;;;;;;5117125;28;20066;-66
2023/01/28 09:00:22;;;;;;;106.80;50.15;;;2.00;99.90;;;;;;5117106;28;20028;-66
2023/01/28 09:02:51;;;;;;;109.45;51.53;;;2.00;99.90;;;;;;5116785;28;20066;-66
2023/01/28 09:05:18;;;;;;;101.90;47.65;;;2.10;99.90;;;;;;5116880;28;20024;-66
2023/01/28 09:07:44;;;;;;;95.47;45.72;;;2.00;99.90;;;;;;5116926;28;20024;-66
2023/01/28 09:10:10;;;;;;;100.95;48.20;;;2.00;99.90;;;;;;5116621;28;20437;-66
2023/01/28 09:12:37;;;;;;;98.05;47.08;;;2.10;99.90;;;;;;5116977;28;20027;-66
2023/01/28 09:15:04;;;;;;;118.78;54.08;;;2.00;99.90;;;;;;5116656;28;20034;-66
2023/01/28 09:17:29;;;;;;;140.15;60.85;;;1.90;99.90;;;;;;5116384;27;20115;-66
2023/01/28 09:19:55;;;;;;;116.15;53.78;;;2.00;99.90;;;;;;5116615;28;20059;-66
2023/01/28 09:22:21;;;;;;;200.82;79.32;;;2.00;99.90;;;;;;5115302;28;20398;-66
2023/01/28 09:24:47;;;;;;;321.85;110.90;;;2.00;99.90;;;;;;5116312;28;20035;-66
2023/01/28 09:27:13;;;;;;;243.35;87.28;;;2.10;99.90;;;;;;5116336;28;20028;-66
2023/01/28 09:29:39;;;;;;;108.60;50.33;;;2.10;99.90;;;;;;5116316;28;20020;-66
2023/01/28 09:32:08;;;;;;;105.50;50.85;;;2.20;99.90;;;;;;5116342;28;20033;-66
2023/01/28 09:34:34;;;;;;;115.80;51.80;;;2.10;99.90;;;;;;5116244;28;20027;-66
2023/01/28 09:37:01;;;;;;;106.82;48.80;;;2.10;99.90;;;;;;5116180;28;20084;-66
2023/01/28 09:39:29;;;;;;;109.35;49.35;;;2.10;99.90;;;;;;5116292;28;20027;-67
2023/01/28 09:42:02;;;;;;;94.68;47.13;;;2.10;99.90;;;;;;5115982;28;20026;-67
2023/01/28 09:44:48;;;;;;;102.28;50.92;;;2.20;99.90;;;;;;5116244;28;20020;-66
2023/01/28 09:47:34;;;;;;;107.97;53.17;;;2.20;99.90;;;;;;5116147;28;20106;-66
2023/01/28 09:50:06;;;;;;;103.25;50.22;;;2.30;99.90;;;;;;5115872;28;20031;-67
2023/01/28 09:52:35;;;;;;;98.18;48.92;;;2.40;99.90;;;;;;5115751;28;20122;-66
2023/01/28 09:55:23;;;;;;;98.65;49.67;;;2.30;99.90;;;;;;5115940;28;20035;-67
2023/01/28 09:57:54;;;;;;;109.25;52.40;;;2.30;99.90;;;;;;5115861;28;20377;-66
2023/01/28 10:00:22;;;;;;;;;;;2.30;99.90;;;;;;5116347;28;20020;-67
2023/01/28 10:03:12;;;;;;;105.30;50.53;;;2.30;99.90;;;;;;5115685;28;19916;-66
2023/01/28 10:06:01;;;;;;;174.48;80.85;;;2.30;99.90;;;;;;5115788;28;20023;-67
2023/01/28 10:09:03;;;;;;;158.40;68.78;;;2.40;99.90;;;;;;5115968;28;20131;-67
2023/01/28 10:12:09;;;;;;;118.45;58.15;;;2.50;99.90;;;;;;5115534;28;20027;-66
2023/01/28 10:14:43;;;;;;;125.97;57.58;;;2.40;99.90;;;;;;5115448;28;20031;-66
2023/01/28 10:17:17;;;;;;;110.90;53.85;;;2.50;99.90;;;;;;5115357;28;20031;-67
2023/01/28 10:19:48;;;;;;;113.38;53.97;;;2.40;99.90;;;;;;5115416;28;20027;-66
2023/01/28 10:22:36;;;;;;;138.95;60.35;;;2.40;99.90;;;;;;5115388;28;20414;-66
2023/01/28 10:25:06;;;;;;;123.35;56.97;;;2.40;99.90;;;;;;5115492;28;20031;-66
2023/01/28 10:27:35;;;;;;;92.50;46.40;;;2.30;99.90;;;;;;5115251;28;20087;-66
2023/01/28 10:30:21;;;;;;;84.50;43.72;;;2.30;99.90;;;;;;5115305;28;20031;-67
2023/01/28 10:33:19;;;;;;;90.22;43.30;;;2.40;99.90;;;;;;5114799;28;20035;-67
2023/01/28 10:35:46;;;;;;;100.22;47.92;;;2.30;99.90;;;;;;5107650;28;20115;-66
2023/01/28 10:38:16;;;;;;;94.07;47.72;;;2.30;99.90;;;;;;5115312;28;20020;-66
2023/01/28 10:40:42;;;;;;;93.50;46.80;;;2.40;99.90;;;;;;5115407;28;20107;-67
2023/01/28 10:43:08;;;;;;;96.88;47.63;;;2.40;99.90;;;;;;5115079;28;20476;-67
2023/01/28 10:45:58;;;;;;;103.10;52.13;;;2.30;99.90;;;;;;5115237;28;20022;-66
2023/01/28 10:48:37;;;;;;;101.78;51.88;;;2.20;99.90;;;;;;5115178;28;20076;-66
2023/01/28 10:51:05;;;;;;;92.10;46.28;;;2.40;99.90;;;;;;5115030;28;20028;-67
2023/01/28 10:53:45;;;;;;;89.20;44.55;;;2.50;99.90;;;;;;5114989;28;20027;-67
2023/01/28 10:56:30;;;;;;;88.70;42.63;;;2.40;99.90;;;;;;5115007;28;20060;-66
2023/01/28 10:59:17;;;;;;;127.50;54.20;;;2.40;99.90;;;;;;5115047;28;20034;-66
2023/01/28 11:01:58;;;;;;;108.60;50.72;;;2.40;99.90;;;;;;5114890;28;20044;-66
2023/01/28 11:04:26;;;;;;;91.70;43.33;;;2.50;99.90;;;;;;5115040;28;20024;-67
2023/01/28 11:06:53;;;;;;;100.03;47.40;;;2.50;99.90;;;;;;5115010;28;20150;-66
2023/01/28 11:09:36;;;;;;;89.43;45.22;;;2.50;99.90;;;;;;5114988;28;20087;-66
2023/01/28 11:12:20;;;;;;;86.43;42.83;;;2.50;99.90;;;;;;5114991;28;20111;-66
2023/01/28 11:15:03;;;;;;;94.18;48.22;;;2.50;99.90;;;;;;5114712;28;20548;-66
2023/01/28 11:17:33;;;;;;;86.35;42.70;;;2.50;99.90;;;;;;5114694;28;20035;-66
2023/01/28 11:20:21;;;;;;;77.90;39.83;;;2.50;99.90;;;;;;5114907;28;20123;-66
2023/01/28 11:22:48;;;;;;;79.22;41.58;;;2.40;99.90;;;;;;5114672;28;20165;-66
2023/01/28 11:25:26;;;;;;;90.68;44.45;;;2.40;99.90;;;;;;5114654;28;20461;-66
2023/01/28 11:27:53;;;;;;;95.13;48.40;;;2.50;99.90;;;;;;5114684;28;20032;-66
2023/01/28 11:30:39;;;;;;;87.78;45.17;;;2.50;99.90;;;;;;5114548;28;20030;-67
2023/01/28 11:33:13;;;;;;;101.25;48.72;;;2.40;99.90;;;;;;5114662;28;20028;-66
2023/01/28 11:35:39;;;;;;;92.47;45.67;;;2.50;99.90;;;;;;5114557;28;20491;-66
2023/01/28 11:38:17;;;;;;;72.70;36.50;;;2.30;99.90;;;;;;5114453;28;20028;-66
2023/01/28 11:40:54;;;;;;;82.53;39.70;;;2.50;99.90;;;;;;5114753;28;20016;-66
2023/01/28 11:43:26;;;;;;;69.38;36.78;;;2.50;99.90;;;;;;5114557;28;20373;-66
2023/01/28 11:46:19;;;;;;;86.40;42.88;;;2.50;99.90;;;;;;5116668;28;20481;-66
2023/01/28 11:48:59;;;;;;;83.25;42.45;;;2.40;99.90;;;;;;5080692;28;20112;-66
2023/01/28 11:51:44;;;;;;;81.57;41.05;;;2.40;99.90;;;;;;5118313;28;20061;-66
2023/01/28 11:54:39;;;;;;;98.38;46.83;;;2.50;99.90;;;;;;5118201;28;20034;-66
2023/01/28 11:57:30;;;;;;;116.00;51.97;;;2.50;99.90;;;;;;5118019;28;20019;-66
2023/01/28 12:00:14;;;;;;;;;;;2.50;99.90;;;;;;5118683;28;20024;-66
2023/01/28 12:02:54;;;;;;;149.48;73.10;;;2.40;99.90;;;;;;5118050;28;19926;-66
2023/01/28 12:05:31;;;;;;;133.97;67.20;;;2.40;99.90;;;;;;5118138;28;20043;-66
2023/01/28 12:08:11;;;;;;;120.45;61.17;;;2.40;99.90;;;;;;5117882;28;20283;-66
2023/01/28 12:11:06;;;;;;;92.75;46.90;;;2.20;99.90;;;;;;5118003;28;20106;-66
2023/01/28 12:13:47;;;;;;;88.57;43.97;;;2.20;99.90;;;;;;5117883;28;20099;-67
2023/01/28 12:16:16;;;;;;;;;;;2.30;99.90;;;;;;5118175;28;20028;-66
2023/01/28 12:18:57;;;;;;;64.55;34.50;;;2.20;99.90;;;;;;5117829;28;19907;-66
2023/01/28 12:21:46;;;;;;;67.15;34.10;;;2.00;99.90;;;;;;5117808;28;20045;-66
2023/01/28 12:24:20;;;;;;;63.60;34.70;;;2.00;99.90;;;;;;5079273;28;20035;-66
2023/01/28 12:27:07;;;;;;;72.53;37.22;;;2.00;99.90;;;;;;5117567;28;20370;-66
2023/01/28 12:29:58;;;;;;;57.28;31.88;;;2.10;99.90;;;;;;5117599;28;20027;-66
2023/01/28 12:33:08;;;;;;;62.80;33.55;;;2.10;99.90;;;;;;5117632;28;20031;-66
2023/01/28 12:35:55;;;;;;;62.92;33.50;;;2.10;99.90;;;;;;5116923;28;20050;-66
2023/01/28 12:38:50;;;;;;;74.30;36.88;;;2.10;99.90;;;;;;5117372;28;20028;-66
2023/01/28 12:41:20;;;;;;;76.05;38.25;;;2.30;99.90;;;;;;5094218;28;20036;-66
2023/01/28 12:44:05;;;;;;;72.13;38.50;;;2.30;99.90;;;;;;5117551;28;20525;-66
2023/01/28 12:46:55;;;;;;;79.32;37.10;;;2.30;99.90;;;;;;5117270;28;20508;-66
2023/01/28 12:49:30;;;;;;;88.78;42.63;;;2.30;99.90;;;;;;5117290;28;20024;-66
2023/01/28 12:52:00;;;;;;;81.38;40.65;;;2.20;99.90;;;;;;5117205;28;20384;-66
2023/01/28 12:54:43;;;;;;;89.30;41.90;;;2.20;99.90;;;;;;5117184;28;20031;-66
2023/01/28 12:57:18;;;;;;;84.97;39.78;;;2.20;99.90;;;;;;5116720;27;20031;-66
2023/01/28 12:59:56;;;;;;;90.47;42.15;;;2.30;99.90;;;;;;5117110;27;20024;-66
2023/01/28 13:02:40;;;;;;;88.43;43.60;;;2.30;99.90;;;;;;5116900;28;20046;-66
2023/01/28 13:05:20;;;;;;;74.95;38.58;;;2.30;99.90;;;;;;5116884;28;20130;-66
2023/01/28 13:07:49;;;;;;;94.60;45.67;;;2.40;99.90;;;;;;5117039;28;20061;-66
2023/01/28 13:10:15;;;;;;;87.00;44.17;;;2.30;99.90;;;;;;5116853;28;20060;-66
2023/01/28 13:12:41;;;;;;;101.55;46.65;;;2.40;99.90;;;;;;5116676;28;20024;-66
2023/01/28 13:15:14;;;;;;;100.88;50.83;;;2.30;99.90;;;;;;5116758;28;20044;-66
2023/01/28 13:18:00;;;;;;;97.40;44.38;;;2.20;99.90;;;;;;5116638;28;20507;-67
2023/01/28 13:20:47;;;;;;;78.22;38.17;;;2.40;99.90;;;;;;5116666;28;20365;-66
2023/01/28 13:23:46;;;;;;;83.00;41.67;;;2.40;99.90;;;;;;5116432;28;20601;-66
2023/01/28 13:26:18;;;;;;;91.43;41.45;;;2.50;99.90;;;;;;5071979;28;20046;-66
2023/01/28 13:28:46;;;;;;;96.72;45.47;;;2.50;99.90;;;;;;5116524;28;20028;-66
2023/01/28 13:31:17;;;;;;;94.68;44.88;;;2.50;99.90;;;;;;5116294;28;20037;-66
2023/01/28 13:33:52;;;;;;;83.90;42.95;;;2.50;99.90;;;;;;5116427;28;20030;-67
2023/01/28 13:36:45;;;;;;;98.43;48.03;;;2.50;99.90;;;;;;5116158;28;20028;-66